createdAt,value
2018-07-20T00:02:04.555Z,25.23
2018-07-20T00:04:33.929Z,14.93
2018-07-20T00:07:02.928Z,17.75
2018-07-20T00:09:32.158Z,17.30
2018-07-20T00:12:01.235Z,19.82
2018-07-20T00:14:31.408Z,22.93
2018-07-20T00:17:00.364Z,16.57
2018-07-20T00:19:30.265Z,21.42
2018-07-20T00:21:59.070Z,19.80
2018-07-20T00:24:28.553Z,15.15
2018-07-20T00:26:58.269Z,18.12
2018-07-20T00:29:26.973Z,16.12
2018-07-20T00:31:56.413Z,16.75
2018-07-20T00:34:26.010Z,15.98
2018-07-20T00:36:54.769Z,19.35
2018-07-20T00:39:24.113Z,19.87
2018-07-20T00:41:52.868Z,17.30
2018-07-20T00:44:22.307Z,19.42
2018-07-20T00:46:51.349Z,19.35
2018-07-20T00:49:20.985Z,14.25
2018-07-20T00:51:50.814Z,22.10
2018-07-20T00:54:20.541Z,14.25
2018-07-20T00:56:50.576Z,18.12
2018-07-20T00:59:19.909Z,12.25
2018-07-20T01:01:48.898Z,14.55
2018-07-20T01:04:18.580Z,14.90
2018-07-20T01:06:47.912Z,18.55
2018-07-20T01:09:16.913Z,14.70
2018-07-20T01:11:46.649Z,17.23
2018-07-20T01:14:16.038Z,15.50
2018-07-20T01:16:44.994Z,13.60
2018-07-20T01:19:14.222Z,15.85
2018-07-20T01:21:42.858Z,13.28
2018-07-20T01:24:13.106Z,15.60
2018-07-20T01:26:42.954Z,14.43
2018-07-20T01:29:12.233Z,19.67
2018-07-20T01:31:41.204Z,13.75
2018-07-20T01:34:10.783Z,15.58
2018-07-20T01:36:40.194Z,12.55
2018-07-20T01:39:09.913Z,16.37
2018-07-20T01:41:39.274Z,15.38
2018-07-20T01:44:09.434Z,15.60
2018-07-20T01:46:39.553Z,16.80
2018-07-20T01:49:09.208Z,19.32
2018-07-20T01:51:38.589Z,15.08
2018-07-20T01:54:08.054Z,19.27
2018-07-20T01:56:37.049Z,11.38
2018-07-20T01:59:06.578Z,12.25
2018-07-20T02:01:36.134Z,13.22
2018-07-20T02:04:05.020Z,14.10
2018-07-20T02:06:34.476Z,10.23
2018-07-20T02:09:04.834Z,11.50
2018-07-20T02:11:34.608Z,15.25
2018-07-20T02:14:04.821Z,13.75
2018-07-20T02:16:34.728Z,11.55
2018-07-20T02:19:04.658Z,17.05
2018-07-20T02:21:34.118Z,15.72
2018-07-20T02:24:02.949Z,11.97
2018-07-20T02:26:32.034Z,14.78
2018-07-20T02:29:01.129Z,16.75
2018-07-20T02:31:30.629Z,15.70
2018-07-20T02:34:00.354Z,13.22
2018-07-20T02:36:29.885Z,10.55
2018-07-20T02:38:58.743Z,14.40
2018-07-20T02:41:28.337Z,13.35
2018-07-20T02:43:57.635Z,11.73
2018-07-20T02:46:26.945Z,11.25
2018-07-20T02:48:56.690Z,17.87
2018-07-20T02:51:25.977Z,11.50
2018-07-20T02:53:54.954Z,14.30
2018-07-20T02:56:24.340Z,13.48
2018-07-20T02:58:53.899Z,15.05
2018-07-20T03:01:22.955Z,13.38
2018-07-20T03:03:52.537Z,11.28
2018-07-20T03:06:22.184Z,11.90
2018-07-20T03:08:51.183Z,13.90
2018-07-20T03:11:20.454Z,13.88
2018-07-20T03:13:49.842Z,15.80
2018-07-20T03:16:18.898Z,11.12
2018-07-20T03:18:48.849Z,11.68
2018-07-20T03:21:18.448Z,16.20
2018-07-20T03:23:48.101Z,14.00
2018-07-20T03:26:16.850Z,17.05
2018-07-20T03:28:46.745Z,15.10
2018-07-20T03:31:16.540Z,12.47
2018-07-20T03:33:46.061Z,12.28
2018-07-20T03:36:14.877Z,19.73
2018-07-20T03:38:44.550Z,12.05
2018-07-20T03:41:14.024Z,10.10
2018-07-20T03:43:42.974Z,10.35
2018-07-20T03:46:12.698Z,12.90
2018-07-20T03:48:42.086Z,15.23
2018-07-20T03:51:10.967Z,12.93
2018-07-20T03:53:40.426Z,9.28
2018-07-20T03:56:10.060Z,11.63
2018-07-20T03:58:38.829Z,16.93
2018-07-20T04:01:08.979Z,12.58
2018-07-20T04:03:38.497Z,15.08
2018-07-20T04:06:07.920Z,12.23
2018-07-20T04:08:36.693Z,12.70
2018-07-20T04:11:06.125Z,8.35
2018-07-20T04:13:34.994Z,11.12
2018-07-20T04:16:04.547Z,10.72
2018-07-20T04:18:34.029Z,15.98
2018-07-20T04:21:02.931Z,10.58
2018-07-20T04:23:32.539Z,8.73
2018-07-20T04:26:02.069Z,14.15
2018-07-20T04:28:30.873Z,8.65
2018-07-20T04:31:00.536Z,9.08
2018-07-20T04:33:30.039Z,11.60
2018-07-20T04:35:58.749Z,11.55
2018-07-20T04:38:28.460Z,9.35
2018-07-20T04:40:58.029Z,10.65
2018-07-20T04:43:26.789Z,7.37
2018-07-20T04:45:56.544Z,11.43
2018-07-20T04:48:27.215Z,10.38
2018-07-20T04:50:56.801Z,8.98
2018-07-20T04:53:26.865Z,8.48
2018-07-20T04:55:56.289Z,8.53
2018-07-20T04:58:25.045Z,10.63
2018-07-20T05:00:54.780Z,11.75
2018-07-20T05:03:24.362Z,9.43
2018-07-20T05:05:53.295Z,9.13
2018-07-20T05:08:23.305Z,11.70
2018-07-20T05:10:52.880Z,7.92
2018-07-20T05:13:22.324Z,8.65
2018-07-20T05:15:51.798Z,8.03
2018-07-20T05:18:20.720Z,9.65
2018-07-20T05:20:50.628Z,10.72
2018-07-20T05:23:20.021Z,10.32
2018-07-20T05:25:48.973Z,22.00
2018-07-20T05:28:18.607Z,9.18
2018-07-20T05:30:48.109Z,13.53
2018-07-20T05:33:16.813Z,12.25
2018-07-20T05:35:46.873Z,11.35
2018-07-20T05:38:16.351Z,13.15
2018-07-20T05:40:45.373Z,10.80
2018-07-20T05:43:14.935Z,9.20
2018-07-20T05:45:44.430Z,8.10
2018-07-20T05:48:14.110Z,8.25
2018-07-20T05:50:43.309Z,6.42
2018-07-20T05:53:12.890Z,11.40
2018-07-20T05:55:42.329Z,9.45
2018-07-20T05:58:11.200Z,7.97
2018-07-20T06:00:41.113Z,10.63
2018-07-20T06:03:10.809Z,9.45
2018-07-20T06:05:40.489Z,8.70
2018-07-20T06:08:10.156Z,11.12
2018-07-20T06:10:38.973Z,9.33
2018-07-20T06:13:09.190Z,9.58
2018-07-20T06:15:38.875Z,9.40
2018-07-20T06:18:08.620Z,9.45
2018-07-20T06:20:38.357Z,9.45
2018-07-20T06:23:07.055Z,5.83
2018-07-20T06:25:36.979Z,12.43
2018-07-20T06:28:06.814Z,10.15
2018-07-20T06:30:35.871Z,6.58
2018-07-20T06:33:05.164Z,11.50
2018-07-20T06:35:34.797Z,9.98
2018-07-20T06:38:04.545Z,11.15
2018-07-20T06:40:34.156Z,14.85
2018-07-20T06:43:03.299Z,8.70
2018-07-20T06:45:33.248Z,14.47
2018-07-20T06:48:02.810Z,6.75
2018-07-20T06:50:32.843Z,8.13
2018-07-20T06:53:02.192Z,10.60
2018-07-20T06:55:31.113Z,11.03
2018-07-20T06:58:00.621Z,7.05
2018-07-20T07:00:30.330Z,6.80
2018-07-20T07:02:59.116Z,13.13
2018-07-20T07:05:28.629Z,9.28
2018-07-20T07:07:57.978Z,8.40
2018-07-20T07:10:26.679Z,9.28
2018-07-20T07:12:56.738Z,9.95
2018-07-20T07:15:26.477Z,7.30
2018-07-20T07:17:56.376Z,8.10
2018-07-20T07:20:25.249Z,11.73
2018-07-20T07:22:55.165Z,7.35
2018-07-20T07:25:24.064Z,5.60
2018-07-20T07:27:52.935Z,7.75
2018-07-20T07:30:22.629Z,5.80
2018-07-20T07:32:52.042Z,6.62
2018-07-20T07:35:20.843Z,8.00
2018-07-20T07:37:50.468Z,7.03
2018-07-20T07:40:19.944Z,6.87
2018-07-20T07:42:48.897Z,5.67
2018-07-20T07:45:18.745Z,9.00
2018-07-20T07:47:47.428Z,9.03
2018-07-20T07:50:17.103Z,8.88
2018-07-20T07:52:46.799Z,9.63
2018-07-20T07:55:16.355Z,7.03
2018-07-20T07:57:45.856Z,8.33
2018-07-20T08:00:14.956Z,8.58
2018-07-20T08:02:44.259Z,8.35
2018-07-20T08:05:13.608Z,5.75
2018-07-20T08:07:42.605Z,6.65
2018-07-20T08:10:11.464Z,7.50
2018-07-20T08:12:41.406Z,9.00
2018-07-20T08:15:11.040Z,8.93
2018-07-20T08:17:40.549Z,8.58
2018-07-20T08:20:10.440Z,9.03
2018-07-20T08:22:39.599Z,7.15
2018-07-20T08:25:09.688Z,7.95
2018-07-20T08:27:38.473Z,9.38
2018-07-20T08:30:07.897Z,6.12
2018-07-20T08:32:37.090Z,8.65
2018-07-20T08:35:06.292Z,12.23
2018-07-20T08:37:34.955Z,5.83
2018-07-20T08:40:11.338Z,8.23
2018-07-20T08:42:40.791Z,8.45
2018-07-20T08:45:10.037Z,8.18
2018-07-20T08:47:38.928Z,5.90
2018-07-20T08:50:08.790Z,4.72
2018-07-20T08:52:38.283Z,12.85
2018-07-20T08:55:07.241Z,9.10
2018-07-20T08:57:40.762Z,4.15
2018-07-20T09:00:10.195Z,7.40
2018-07-20T09:02:40.156Z,4.62
2018-07-20T09:05:08.866Z,6.25
2018-07-20T09:07:37.377Z,10.75
2018-07-20T09:10:05.813Z,6.92
2018-07-20T09:12:34.412Z,5.87
2018-07-20T09:15:02.897Z,6.55
2018-07-20T09:17:32.292Z,6.42
2018-07-20T09:20:01.259Z,5.62
2018-07-20T09:22:31.143Z,5.25
2018-07-20T09:25:00.461Z,6.42
2018-07-20T09:27:30.304Z,5.75
2018-07-20T09:29:59.071Z,6.97
2018-07-20T09:32:28.500Z,7.75
2018-07-20T09:34:57.501Z,5.22
2018-07-20T09:37:27.316Z,5.40
2018-07-20T09:39:56.002Z,7.87
2018-07-20T09:42:24.836Z,5.53
2018-07-20T09:44:54.107Z,4.70
2018-07-20T09:47:23.128Z,8.20
2018-07-20T09:49:51.850Z,9.83
2018-07-20T09:52:20.612Z,6.45
2018-07-20T09:54:49.953Z,4.72
2018-07-20T09:57:18.574Z,6.25
2018-07-20T09:59:47.904Z,6.40
2018-07-20T10:02:17.697Z,4.30
2018-07-20T10:04:47.570Z,3.22
2018-07-20T10:07:16.516Z,6.95
2018-07-20T10:09:46.350Z,7.83
2018-07-20T10:12:14.948Z,5.70
2018-07-20T10:14:44.906Z,7.60
2018-07-20T10:17:14.425Z,4.67
2018-07-20T10:19:43.311Z,7.92
2018-07-20T10:22:12.919Z,3.92
2018-07-20T10:24:42.593Z,8.30
2018-07-20T10:29:40.695Z,12.88
2018-07-20T10:32:10.997Z,8.80
2018-07-20T10:34:40.826Z,5.67
2018-07-20T10:37:10.993Z,6.15
2018-07-20T10:39:40.562Z,4.87
2018-07-20T10:42:10.642Z,11.75
2018-07-20T10:44:41.417Z,5.90
2018-07-20T10:47:10.226Z,5.15
2018-07-20T10:49:39.115Z,7.72
2018-07-20T10:52:09.342Z,5.83
2018-07-20T10:54:38.771Z,5.33
2018-07-20T10:57:08.758Z,7.42
2018-07-20T10:59:38.341Z,5.60
2018-07-20T11:02:07.197Z,4.50
2018-07-20T11:04:36.794Z,8.20
2018-07-20T11:07:06.232Z,8.78
2018-07-20T11:09:35.465Z,11.25
2018-07-20T11:12:05.092Z,3.60
2018-07-20T11:14:34.843Z,9.60
2018-07-20T11:17:04.602Z,7.87
2018-07-20T11:19:34.129Z,5.87
2018-07-20T11:22:03.071Z,4.67
2018-07-20T11:24:32.926Z,5.62
2018-07-20T11:27:02.826Z,5.12
2018-07-20T11:29:32.405Z,7.65
2018-07-20T11:32:01.201Z,7.17
2018-07-20T11:34:30.254Z,7.15
2018-07-20T11:36:59.093Z,6.03
2018-07-20T11:39:29.045Z,6.40
2018-07-20T11:41:58.744Z,9.18
2018-07-20T11:44:28.325Z,7.92
2018-07-20T11:46:57.089Z,8.38
2018-07-20T11:49:26.595Z,6.05
2018-07-20T11:51:56.591Z,6.92
2018-07-20T11:54:26.263Z,5.15
2018-07-20T11:56:55.924Z,5.80
2018-07-20T11:59:24.838Z,8.83
2018-07-20T12:01:54.690Z,6.20
2018-07-20T12:04:24.199Z,4.85
2018-07-20T12:06:53.312Z,5.17
2018-07-20T12:09:23.223Z,5.53
2018-07-20T12:11:52.702Z,7.08
2018-07-20T12:14:22.439Z,5.08
2018-07-20T12:16:51.912Z,8.68
2018-07-20T12:19:21.183Z,6.33
2018-07-20T12:21:51.162Z,5.62
2018-07-20T12:24:21.146Z,8.15
2018-07-20T12:26:50.509Z,5.00
2018-07-20T12:29:20.129Z,23.50
2018-07-20T12:31:50.167Z,7.03
2018-07-20T12:34:19.666Z,5.30
2018-07-20T12:36:49.621Z,6.00
2018-07-20T12:39:21.372Z,7.65
2018-07-20T12:41:51.724Z,6.78
2018-07-20T12:44:22.124Z,5.85
2018-07-20T12:46:51.569Z,7.45
2018-07-20T12:49:28.841Z,5.58
2018-07-20T12:51:57.916Z,6.87
2018-07-20T12:54:26.801Z,8.10
2018-07-20T12:56:56.892Z,7.92
2018-07-20T12:59:25.598Z,15.40
2018-07-20T13:01:55.353Z,5.30
2018-07-20T13:04:25.041Z,5.28
2018-07-20T13:06:54.373Z,7.97
2018-07-20T13:09:23.408Z,9.45
2018-07-20T13:11:53.450Z,8.78
2018-07-20T13:14:23.103Z,12.25
2018-07-20T13:16:52.660Z,6.17
2018-07-20T13:19:22.249Z,7.00
2018-07-20T13:21:51.257Z,8.05
2018-07-20T13:24:21.081Z,6.50
2018-07-20T13:26:50.169Z,12.63
2018-07-20T13:29:19.238Z,10.68
2018-07-20T13:31:48.453Z,6.42
2018-07-20T13:34:17.781Z,7.03
2018-07-20T13:36:47.524Z,7.47
2018-07-20T13:39:17.173Z,8.35
2018-07-20T13:41:47.000Z,8.93
2018-07-20T13:44:16.764Z,10.05
2018-07-20T13:46:49.722Z,8.95
2018-07-20T13:49:18.362Z,8.08
2018-07-20T13:51:48.057Z,12.68
2018-07-20T13:54:17.665Z,7.20
2018-07-20T13:56:47.526Z,5.83
2018-07-20T13:59:16.480Z,8.60
2018-07-20T14:01:46.103Z,11.50
2018-07-20T14:04:15.642Z,7.75
2018-07-20T14:06:44.894Z,5.60
2018-07-20T14:09:14.849Z,6.37
2018-07-20T14:11:44.401Z,8.70
2018-07-20T14:14:13.562Z,7.70
2018-07-20T14:16:42.382Z,8.33
2018-07-20T14:19:11.705Z,6.30
2018-07-20T14:21:41.329Z,8.48
2018-07-20T14:24:11.184Z,6.67
2018-07-20T14:26:41.232Z,8.30
2018-07-20T14:29:10.834Z,7.20
2018-07-20T14:31:40.164Z,6.40
2018-07-20T14:34:08.945Z,11.10
2018-07-20T14:36:39.122Z,9.08
2018-07-20T14:39:12.225Z,5.55
2018-07-20T14:41:41.510Z,5.72
2018-07-20T14:44:11.232Z,8.73
2018-07-20T14:46:42.964Z,9.20
2018-07-20T14:49:12.465Z,5.83
2018-07-20T14:51:43.188Z,5.72
2018-07-20T14:54:12.521Z,6.08
2018-07-20T14:56:41.561Z,6.25
2018-07-20T14:59:10.282Z,8.03
2018-07-20T15:01:39.164Z,6.83
2018-07-20T15:04:08.880Z,6.30
2018-07-20T15:06:38.785Z,10.40
2018-07-20T15:09:11.410Z,5.87
2018-07-20T15:11:41.105Z,6.35
2018-07-20T15:14:12.062Z,6.92
2018-07-20T15:16:41.401Z,5.90
2018-07-20T15:19:11.005Z,7.12
2018-07-20T15:21:40.413Z,9.88
2018-07-20T15:24:09.381Z,7.22
2018-07-20T15:26:39.536Z,9.30
2018-07-20T15:29:09.512Z,7.65
2018-07-20T15:31:39.560Z,8.23
2018-07-20T15:34:09.153Z,9.80
2018-07-20T15:36:39.586Z,7.28
2018-07-20T15:39:11.200Z,6.03
2018-07-20T15:41:41.016Z,6.62
2018-07-20T15:44:12.204Z,14.13
2018-07-20T15:46:42.118Z,6.70
2018-07-20T15:49:11.712Z,9.55
2018-07-20T15:53:35.207Z,7.50
2018-07-20T15:54:10.748Z,7.28
2018-07-20T15:56:40.202Z,5.35
2018-07-20T15:59:10.176Z,7.00
2018-07-20T16:01:39.755Z,9.60
2018-07-20T16:04:08.501Z,10.45
2018-07-20T16:06:38.117Z,7.87
2018-07-20T16:09:08.552Z,8.18
2018-07-20T16:11:38.453Z,6.40
2018-07-20T16:14:08.370Z,6.53
2018-07-20T16:16:38.256Z,6.28
2018-07-20T16:19:08.017Z,8.25
2018-07-20T16:21:37.582Z,5.58
2018-07-20T16:24:07.457Z,4.97
2018-07-20T16:26:37.186Z,12.53
2018-07-20T16:29:06.766Z,11.30
2018-07-20T16:31:36.522Z,6.72
2018-07-20T16:34:06.101Z,7.70
2018-07-20T16:36:35.638Z,7.92
2018-07-20T16:39:07.188Z,8.20
2018-07-20T16:41:37.501Z,8.53
2018-07-20T16:44:06.388Z,9.05
2018-07-20T16:46:35.099Z,6.60
2018-07-20T16:49:04.640Z,11.75
2018-07-20T16:51:34.112Z,8.33
2018-07-20T16:54:03.193Z,8.38
2018-07-20T16:56:32.965Z,8.58
2018-07-20T16:59:04.055Z,6.40
2018-07-20T17:01:33.936Z,11.33
2018-07-20T17:04:03.572Z,7.75
2018-07-20T17:06:33.308Z,9.18
2018-07-20T17:09:03.128Z,6.25
2018-07-20T17:11:32.637Z,8.68
2018-07-20T17:14:02.920Z,5.90
2018-07-20T17:16:32.293Z,8.50
2018-07-20T17:19:01.052Z,10.95
2018-07-20T17:21:30.966Z,10.50
2018-07-20T17:24:00.722Z,6.28
2018-07-20T17:26:30.279Z,8.85
2018-07-20T17:28:59.940Z,8.78
2018-07-20T17:31:29.062Z,6.22
2018-07-20T17:33:58.537Z,10.28
2018-07-20T17:36:27.990Z,8.33
2018-07-20T17:38:56.923Z,9.03
2018-07-20T17:41:26.793Z,6.97
2018-07-20T17:43:56.629Z,6.47
2018-07-20T17:46:26.333Z,9.95
2018-07-20T17:48:56.018Z,11.15
2018-07-20T17:51:25.524Z,6.12
2018-07-20T17:53:54.437Z,8.25
2018-07-20T17:56:24.834Z,7.20
2018-07-20T17:58:54.885Z,8.98
2018-07-20T18:01:24.594Z,6.53
2018-07-20T18:03:55.756Z,9.25
2018-07-20T18:06:25.233Z,8.73
2018-07-20T18:08:55.015Z,8.78
2018-07-20T18:11:25.079Z,9.13
2018-07-20T18:13:54.992Z,8.85
2018-07-20T18:16:24.412Z,6.22
2018-07-20T18:18:54.177Z,7.28
2018-07-20T18:21:23.621Z,7.65
2018-07-20T18:23:52.868Z,11.68
2018-07-20T18:26:23.260Z,6.80
2018-07-20T18:28:52.836Z,8.15
2018-07-20T18:31:22.736Z,7.70
2018-07-20T18:33:52.451Z,6.60
2018-07-20T18:36:21.164Z,22.50
2018-07-20T18:38:51.441Z,8.33
2018-07-20T18:41:21.380Z,9.83
2018-07-20T18:43:50.983Z,7.08
2018-07-20T18:46:20.877Z,12.25
2018-07-20T18:48:50.934Z,10.53
2018-07-20T18:51:20.953Z,14.30
2018-07-20T18:53:51.137Z,8.70
2018-07-20T18:56:20.513Z,8.50
2018-07-20T18:58:49.535Z,11.00
2018-07-20T19:01:19.479Z,22.40
2018-07-20T19:03:48.918Z,19.23
2018-07-20T19:06:18.293Z,21.05
2018-07-20T19:08:47.000Z,9.80
2018-07-20T19:11:16.227Z,14.43
2018-07-20T19:13:44.939Z,10.00
2018-07-20T19:16:14.408Z,12.82
2018-07-20T19:18:43.551Z,12.53
2018-07-20T19:21:13.015Z,17.30
2018-07-20T19:23:42.769Z,11.38
2018-07-20T19:26:12.521Z,11.03
2018-07-20T19:28:41.366Z,12.13
2018-07-20T19:31:11.261Z,18.30
2018-07-20T19:33:40.703Z,12.75
2018-07-20T19:36:10.515Z,11.75
2018-07-20T19:38:39.180Z,8.83
2018-07-20T19:41:08.577Z,14.73
2018-07-20T19:43:38.461Z,11.12
2018-07-20T19:46:07.753Z,14.10
2018-07-20T19:48:36.475Z,10.55
2018-07-20T19:51:05.833Z,9.90
2018-07-20T19:53:34.772Z,9.60
2018-07-20T19:56:04.384Z,11.22
2018-07-20T19:58:33.774Z,11.70
2018-07-20T20:01:03.136Z,19.65
2018-07-20T20:03:32.576Z,12.78
2018-07-20T20:06:01.890Z,13.88
2018-07-20T20:08:31.105Z,12.03
2018-07-20T20:11:00.093Z,11.20
2018-07-20T20:13:28.938Z,11.20
2018-07-20T20:15:57.657Z,14.05
2018-07-20T20:18:26.495Z,15.85
2018-07-20T20:20:55.338Z,12.30
2018-07-20T20:23:25.268Z,12.82
2018-07-20T20:25:54.452Z,17.00
2018-07-20T20:28:23.186Z,13.03
2018-07-20T20:30:52.947Z,22.13
2018-07-20T20:33:22.374Z,12.28
2018-07-20T20:35:51.698Z,13.38
2018-07-20T20:38:21.214Z,12.33
2018-07-20T20:40:50.905Z,10.72
2018-07-20T20:43:20.752Z,13.18
2018-07-20T20:45:50.041Z,10.88
2018-07-20T20:48:19.104Z,10.13
2018-07-20T20:50:48.698Z,13.08
2018-07-20T20:53:18.163Z,17.85
2018-07-20T20:55:46.936Z,15.05
2018-07-20T20:58:17.011Z,21.82
2018-07-20T21:00:46.565Z,19.40
2018-07-20T21:03:15.480Z,11.60
2018-07-20T21:05:45.014Z,15.05
2018-07-20T21:08:14.809Z,11.48
2018-07-20T21:10:44.033Z,12.45
2018-07-20T21:13:12.860Z,15.13
2018-07-20T21:15:42.260Z,11.78
2018-07-20T21:18:11.045Z,15.23
2018-07-20T21:20:40.700Z,11.43
2018-07-20T21:23:10.596Z,13.30
2018-07-20T21:25:39.450Z,23.05
2018-07-20T21:28:08.873Z,11.65
2018-07-20T21:30:38.490Z,14.35
2018-07-20T21:33:07.730Z,14.90
2018-07-20T21:35:37.516Z,15.08
2018-07-20T21:38:07.168Z,17.12
2018-07-20T21:40:36.664Z,16.70
2018-07-20T21:43:05.585Z,13.30
2018-07-20T21:45:35.769Z,13.15
2018-07-20T21:48:04.781Z,17.20
2018-07-20T21:50:34.445Z,14.55
2018-07-20T21:53:03.420Z,11.68
2018-07-20T21:55:32.697Z,14.20
2018-07-20T21:58:01.733Z,18.87
2018-07-20T22:00:31.450Z,14.90
2018-07-20T22:03:03.866Z,13.20
2018-07-20T22:05:34.328Z,15.98
2018-07-20T22:08:02.967Z,22.70
2018-07-20T22:10:32.614Z,12.78
2018-07-20T22:13:01.491Z,14.00
2018-07-20T22:15:30.776Z,19.27
2018-07-20T22:18:00.674Z,14.38
2018-07-20T22:20:30.046Z,12.73
2018-07-20T22:22:58.884Z,13.95
2018-07-20T22:25:28.422Z,16.62
2018-07-20T22:27:57.293Z,14.90
2018-07-20T22:30:26.908Z,14.50
2018-07-20T22:32:56.580Z,16.25
2018-07-20T22:35:25.175Z,15.20
2018-07-20T22:37:54.468Z,20.17
2018-07-20T22:40:25.178Z,20.40
2018-07-20T22:42:56.635Z,19.75
2018-07-20T22:45:26.797Z,16.00
2018-07-20T22:47:56.614Z,19.80
2018-07-20T22:50:25.536Z,14.50
2018-07-20T22:52:54.322Z,18.05
2018-07-20T22:55:23.159Z,22.05
2018-07-20T22:57:52.897Z,21.02
2018-07-20T23:00:22.425Z,26.15
2018-07-20T23:02:51.472Z,20.17
2018-07-20T23:05:21.617Z,21.55
2018-07-20T23:07:50.333Z,15.65
2018-07-20T23:10:19.348Z,17.17
2018-07-20T23:12:48.893Z,18.95
2018-07-20T23:15:18.517Z,21.12
2018-07-20T23:17:47.161Z,16.35
2018-07-20T23:20:17.002Z,20.17
2018-07-20T23:22:46.556Z,20.70
2018-07-20T23:25:15.882Z,20.43
2018-07-20T23:27:45.206Z,20.05
2018-07-20T23:43:19.987Z,17.75
2018-07-20T23:45:48.733Z,19.15
2018-07-20T23:48:18.787Z,15.88
2018-07-20T23:50:48.300Z,21.70
2018-07-20T23:53:17.411Z,19.52
2018-07-20T23:55:46.174Z,18.65
2018-07-20T23:58:15.477Z,21.07
